Time;durP1;ratioP1;P1;durP2;ratioP2;P2;SDS_P1;SDS_P2;PMS_P1;PMS_P2;Temp;Humidity;BMP_temperature;BMP_pressure;BME280_temperature;BME280_humidity;BME280_pressure;Samples;Min_cycle;Max_cycle;Signal;HPM_P1;HPM_P2
2022/11/21 00:01:25;;;;;;;1.30;0.70;;;;;;;;;;6089082;23;20097;-81
2022/11/21 00:03:52;;;;;;;0.63;0.60;;;;;;;;;;6089185;23;20189;-82
2022/11/21 00:06:26;;;;;;;0.88;0.70;;;;;;;;;;6088750;23;20036;-82
2022/11/21 00:08:53;;;;;;;0.60;0.60;;;;;;;;;;6090037;23;20022;-82
2022/11/21 00:11:27;;;;;;;1.20;0.90;;;;;;;;;;6091014;23;20061;-81
2022/11/21 00:13:54;;;;;;;0.70;0.70;;;;;;;;;;6090643;23;20097;-82
2022/11/21 00:16:21;;;;;;;0.70;0.70;;;;;;;;;;6087285;23;20044;-82
2022/11/21 00:18:55;;;;;;;0.90;0.90;;;;;;;;;;6066438;23;20023;-83
2022/11/21 00:21:22;;;;;;;0.90;0.75;;;;;;;;;;6090437;23;20113;-82
2022/11/21 00:23:56;;;;;;;1.88;1.50;;;;;;;;;;6090332;23;20026;-83
2022/11/21 00:26:23;;;;;;;1.77;1.10;;;;;;;;;;6090050;23;20348;-82
2022/11/21 00:28:58;;;;;;;2.42;1.23;;;;;;;;;;6090064;23;20094;-82
2022/11/21 00:31:25;;;;;;;1.95;1.02;;;;;;;;;;6065093;23;20061;-82
2022/11/21 00:33:52;;;;;;;1.45;0.80;;;;;;;;;;6089689;23;20087;-82
2022/11/21 00:36:26;;;;;;;0.90;0.80;;;;;;;;;;6090401;23;20026;-83
2022/11/21 00:38:53;;;;;;;1.30;0.80;;;;;;;;;;6089326;23;20097;-82
2022/11/21 00:41:30;;;;;;;0.60;0.60;;;;;;;;;;6091067;23;20581;-82
2022/11/21 00:43:57;;;;;;;0.82;0.60;;;;;;;;;;6090032;23;20057;-83
2022/11/21 00:46:24;;;;;;;0.60;0.60;;;;;;;;;;6090680;23;20411;-82
2022/11/21 00:48:58;;;;;;;1.05;0.73;;;;;;;;;;6090218;23;20343;-83
2022/11/21 00:51:32;;;;;;;0.93;0.70;;;;;;;;;;6090152;23;20033;-82
2022/11/21 00:54:05;;;;;;;0.70;0.70;;;;;;;;;;6090745;23;20062;-83
2022/11/21 00:56:32;;;;;;;0.73;0.70;;;;;;;;;;6089407;23;20034;-84
2022/11/21 00:59:06;;;;;;;0.63;0.63;;;;;;;;;;6089678;23;20363;-82
2022/11/21 01:01:40;;;;;;;0.82;0.68;;;;;;;;;;6063868;23;20710;-82
2022/11/21 01:04:21;;;;;;;0.57;0.57;;;;;;;;;;6090873;23;20097;-82
2022/11/21 01:06:48;;;;;;;0.88;0.57;;;;;;;;;;6090964;23;20028;-83
2022/11/21 01:09:22;;;;;;;0.60;0.60;;;;;;;;;;6090873;23;20022;-83
2022/11/21 01:11:49;;;;;;;1.50;0.82;;;;;;;;;;6091383;23;20037;-82
2022/11/21 01:14:17;;;;;;;;;;;;;;;;;;6091028;23;20015;-82
2022/11/21 01:16:50;;;;;;;0.95;0.80;;;;;;;;;;6088720;23;19924;-82
2022/11/21 01:19:17;;;;;;;2.08;0.88;;;;;;;;;;6090731;23;20050;-81
2022/11/21 01:21:45;;;;;;;0.77;0.73;;;;;;;;;;6090542;23;20101;-82
2022/11/21 01:24:18;;;;;;;1.00;0.90;;;;;;;;;;6089741;23;20018;-81
2022/11/21 01:26:47;;;;;;;1.35;1.02;;;;;;;;;;6089451;23;20098;-82
2022/11/21 01:29:21;;;;;;;1.20;1.10;;;;;;;;;;6090645;23;20033;-81
2022/11/21 01:31:48;;;;;;;2.33;1.42;;;;;;;;;;6089481;23;20093;-81
2022/11/21 01:34:16;;;;;;;1.70;1.45;;;;;;;;;;6091557;23;20076;-82
2022/11/21 01:36:50;;;;;;;2.80;1.80;;;;;;;;;;6092803;23;20035;-81
2022/11/21 01:39:24;;;;;;;2.58;1.92;;;;;;;;;;6092410;23;20101;-81
2022/11/21 01:41:57;;;;;;;2.85;2.00;;;;;;;;;;6091812;23;20110;-81
2022/11/21 01:44:26;;;;;;;3.33;2.10;;;;;;;;;;6067346;23;20033;-81
2022/11/21 01:46:53;;;;;;;3.00;2.30;;;;;;;;;;6091296;23;20475;-81
2022/11/21 01:49:29;;;;;;;3.20;2.25;;;;;;;;;;6092267;23;20027;-82
2022/11/21 01:51:56;;;;;;;3.20;2.42;;;;;;;;;;6092819;23;20033;-80
2022/11/21 01:54:39;;;;;;;3.10;2.30;;;;;;;;;;6091197;23;20686;-80
2022/11/21 01:57:09;;;;;;;3.33;2.53;;;;;;;;;;6091334;23;20450;-82
2022/11/21 02:00:02;;;;;;;2.72;2.15;;;;;;;;;;6092165;23;20058;-81
2022/11/21 02:02:38;;;;;;;4.07;2.08;;;;;;;;;;6088057;23;20046;-81
2022/11/21 02:05:17;;;;;;;3.40;2.33;;;;;;;;;;6092725;23;20029;-83
2022/11/21 02:07:45;;;;;;;4.90;2.20;;;;;;;;;;6090464;23;20029;-82
2022/11/21 02:10:19;;;;;;;2.95;2.20;;;;;;;;;;6091097;23;20102;-81
2022/11/21 02:12:49;;;;;;;3.63;2.30;;;;;;;;;;6092192;23;20018;-81
2022/11/21 02:15:24;;;;;;;2.97;1.90;;;;;;;;;;6091250;23;20098;-82
2022/11/21 02:17:58;;;;;;;2.53;1.98;;;;;;;;;;6092139;23;20519;-81
2022/11/21 02:20:27;;;;;;;2.97;2.13;;;;;;;;;;6091307;23;20094;-83
2022/11/21 02:23:00;;;;;;;4.85;2.42;;;;;;;;;;6091800;23;20101;-82
2022/11/21 02:25:35;;;;;;;5.03;2.17;;;;;;;;;;6069043;23;20102;-82
2022/11/21 02:28:05;;;;;;;3.08;2.17;;;;;;;;;;6091693;23;20026;-82
2022/11/21 02:30:40;;;;;;;2.67;1.95;;;;;;;;;;6067777;23;20476;-81
2022/11/21 02:33:08;;;;;;;3.90;2.50;;;;;;;;;;6092235;23;20022;-80
2022/11/21 02:35:42;;;;;;;3.88;2.47;;;;;;;;;;6090662;23;20086;-82
2022/11/21 02:38:23;;;;;;;2.45;2.20;;;;;;;;;;6091056;23;20121;-82
2022/11/21 02:41:14;;;;;;;4.15;2.50;;;;;;;;;;6092017;23;20464;-81
2022/11/21 02:43:47;;;;;;;3.83;2.33;;;;;;;;;;6091921;23;20105;-81
2022/11/21 02:46:21;;;;;;;3.75;2.22;;;;;;;;;;6091233;23;20576;-82
2022/11/21 02:48:48;;;;;;;7.07;2.60;;;;;;;;;;6090656;23;20030;-82
2022/11/21 02:51:15;;;;;;;2.55;2.03;;;;;;;;;;6092807;23;20032;-82
2022/11/21 02:53:49;;;;;;;3.38;2.60;;;;;;;;;;6092130;23;20053;-82
2022/11/21 02:56:16;;;;;;;5.25;2.75;;;;;;;;;;6091865;23;20049;-82
2022/11/21 02:58:50;;;;;;;4.18;2.70;;;;;;;;;;6091148;23;20061;-80
2022/11/21 03:01:24;;;;;;;4.30;2.60;;;;;;;;;;6091414;23;20412;-81
2022/11/21 03:03:58;;;;;;;3.38;2.33;;;;;;;;;;6091688;23;20034;-82
2022/11/21 03:06:25;;;;;;;5.90;2.65;;;;;;;;;;6090401;23;20028;-81
2022/11/21 03:08:52;;;;;;;5.13;2.60;;;;;;;;;;6090689;23;20101;-82
2022/11/21 03:11:26;;;;;;;4.18;3.03;;;;;;;;;;6091888;23;20027;-82
2022/11/21 03:13:53;;;;;;;5.35;2.47;;;;;;;;;;6066794;23;20202;-82
2022/11/21 03:16:27;;;;;;;6.40;2.70;;;;;;;;;;6092673;23;20285;-81
2022/11/21 03:18:54;;;;;;;6.10;3.08;;;;;;;;;;6091894;23;20046;-80
2022/11/21 03:21:21;;;;;;;4.13;3.00;;;;;;;;;;6092935;23;20117;-81
2022/11/21 03:23:55;;;;;;;4.05;2.83;;;;;;;;;;6067575;23;20469;-82
2022/11/21 03:26:22;;;;;;;4.60;2.67;;;;;;;;;;6067362;23;20056;-81
2022/11/21 03:28:56;;;;;;;3.60;2.78;;;;;;;;;;6092062;23;20022;-83
2022/11/21 03:31:23;;;;;;;3.05;2.35;;;;;;;;;;6090728;23;20026;-83
2022/11/21 03:33:57;;;;;;;4.30;2.90;;;;;;;;;;6091564;23;20018;-82
2022/11/21 03:36:24;;;;;;;3.50;2.58;;;;;;;;;;6090597;23;20371;-80
2022/11/21 03:38:52;;;;;;;6.15;2.70;;;;;;;;;;6091386;23;20041;-81
2022/11/21 03:41:29;;;;;;;7.68;2.42;;;;;;;;;;6091825;23;20103;-82
2022/11/21 03:43:57;;;;;;;4.82;2.78;;;;;;;;;;6091620;23;20022;-82
2022/11/21 03:46:32;;;;;;;3.58;2.85;;;;;;;;;;6090275;23;20023;-81
2022/11/21 03:48:59;;;;;;;5.25;2.97;;;;;;;;;;6065575;23;20028;-81
2022/11/21 03:51:33;;;;;;;3.92;2.95;;;;;;;;;;6090946;23;20029;-81
2022/11/21 03:54:00;;;;;;;;;;;;;;;;;;6091750;23;20098;-82
2022/11/21 03:56:28;;;;;;;3.58;2.30;;;;;;;;;;6091972;23;20366;-83
2022/11/21 03:59:02;;;;;;;4.88;2.60;;;;;;;;;;6090525;23;20093;-81
2022/11/21 04:01:36;;;;;;;4.32;2.83;;;;;;;;;;6091161;23;20057;-81
2022/11/21 04:04:17;;;;;;;3.22;2.30;;;;;;;;;;6090247;23;20026;-82
2022/11/21 04:06:44;;;;;;;3.80;2.60;;;;;;;;;;6090745;23;20032;-83
2022/11/21 04:09:18;;;;;;;4.53;2.20;;;;;;;;;;6091222;23;20510;-81
2022/11/21 04:11:45;;;;;;;3.75;2.85;;;;;;;;;;6090816;23;20097;-84
2022/11/21 04:14:12;;;;;;;4.18;2.75;;;;;;;;;;6090415;23;20027;-81
2022/11/21 04:16:46;;;;;;;6.55;3.10;;;;;;;;;;6089274;23;20056;-82
2022/11/21 04:19:13;;;;;;;4.13;3.10;;;;;;;;;;6089892;23;20030;-82
2022/11/21 04:21:47;;;;;;;3.40;2.08;;;;;;;;;;6090804;23;20418;-81
2022/11/21 04:24:14;;;;;;;4.18;3.10;;;;;;;;;;6091784;23;20022;-80
2022/11/21 04:26:41;;;;;;;5.65;3.20;;;;;;;;;;6065036;23;20467;-81
2022/11/21 04:29:15;;;;;;;4.15;2.80;;;;;;;;;;6091155;23;20046;-80
2022/11/21 04:31:42;;;;;;;5.65;3.47;;;;;;;;;;6090299;23;20110;-81
2022/11/21 04:34:09;;;;;;;3.97;3.00;;;;;;;;;;6091503;23;20030;-82
2022/11/21 04:36:43;;;;;;;3.53;2.55;;;;;;;;;;6091115;23;20028;-80
2022/11/21 04:39:10;;;;;;;4.57;3.30;;;;;;;;;;6090422;23;20030;-81
2022/11/21 04:41:44;;;;;;;7.80;3.38;;;;;;;;;;6090236;23;20133;-80
2022/11/21 04:44:11;;;;;;;3.92;2.95;;;;;;;;;;6091311;23;20538;-79
2022/11/21 04:46:38;;;;;;;5.65;3.40;;;;;;;;;;6091244;23;20022;-81
2022/11/21 04:49:12;;;;;;;5.18;2.95;;;;;;;;;;6090386;23;20113;-80
2022/11/21 04:51:39;;;;;;;4.78;3.53;;;;;;;;;;6090992;23;20131;-80
2022/11/21 04:54:07;;;;;;;4.22;2.85;;;;;;;;;;6091216;23;20105;-81
2022/11/21 04:56:40;;;;;;;4.43;3.10;;;;;;;;;;6090707;23;20106;-81
2022/11/21 04:59:07;;;;;;;5.20;3.40;;;;;;;;;;6091238;23;20602;-80
2022/11/21 05:01:48;;;;;;;5.90;3.80;;;;;;;;;;6090766;23;20026;-80
2022/11/21 05:04:22;;;;;;;3.63;2.60;;;;;;;;;;6091929;23;20023;-81
2022/11/21 05:06:55;;;;;;;4.13;2.75;;;;;;;;;;6091320;23;20034;-80
2022/11/21 05:09:23;;;;;;;3.70;2.83;;;;;;;;;;6091734;23;20116;-80
2022/11/21 05:14:42;;;;;;;4.78;2.95;;;;;;;;;;6091462;23;20109;-81
2022/11/21 05:17:09;;;;;;;3.83;2.55;;;;;;;;;;6089455;23;20026;-80
2022/11/21 05:19:43;;;;;;;4.18;3.03;;;;;;;;;;6091672;23;20467;-81
2022/11/21 05:22:11;;;;;;;4.00;2.70;;;;;;;;;;6091736;23;20546;-81
2022/11/21 05:24:45;;;;;;;4.05;2.63;;;;;;;;;;6092644;23;20068;-80
2022/11/21 05:27:12;;;;;;;3.67;2.42;;;;;;;;;;6093998;23;20061;-81
2022/11/21 05:29:39;;;;;;;3.78;2.40;;;;;;;;;;6092424;23;20101;-81
2022/11/21 05:32:13;;;;;;;3.03;2.50;;;;;;;;;;6092663;23;20486;-81
2022/11/21 05:34:40;;;;;;;4.50;2.83;;;;;;;;;;6092424;23;20555;-81
2022/11/21 05:37:14;;;;;;;3.30;2.50;;;;;;;;;;6091271;23;20102;-81
2022/11/21 05:39:41;;;;;;;3.22;2.40;;;;;;;;;;6091207;23;20485;-82
2022/11/21 05:42:08;;;;;;;3.13;2.30;;;;;;;;;;6092913;23;20025;-81
2022/11/21 05:44:42;;;;;;;3.08;2.38;;;;;;;;;;6092407;23;20026;-81
2022/11/21 05:47:09;;;;;;;5.50;2.42;;;;;;;;;;6093167;23;20106;-81
2022/11/21 05:49:43;;;;;;;3.28;2.60;;;;;;;;;;6092513;23;20102;-81
2022/11/21 05:52:10;;;;;;;3.38;2.38;;;;;;;;;;6092368;23;20089;-80
2022/11/21 05:54:37;;;;;;;4.72;2.28;;;;;;;;;;6093158;23;20468;-81
2022/11/21 05:57:12;;;;;;;3.45;2.80;;;;;;;;;;6093025;23;20137;-81
2022/11/21 05:59:39;;;;;;;2.80;2.30;;;;;;;;;;6068405;23;20030;-81
2022/11/21 06:05:13;;;;;;;7.43;2.40;;;;;;;;;;6092370;23;20033;-81
2022/11/21 06:07:46;;;;;;;2.90;2.20;;;;;;;;;;6092759;23;20061;-80
2022/11/21 06:10:13;;;;;;;2.90;2.30;;;;;;;;;;6092856;23;20026;-82
2022/11/21 06:12:41;;;;;;;3.47;2.28;;;;;;;;;;6092780;23;20097;-82
2022/11/21 06:15:14;;;;;;;2.33;1.75;;;;;;;;;;6093312;23;20113;-83
2022/11/21 06:17:41;;;;;;;3.05;2.22;;;;;;;;;;6067623;23;20101;-81
2022/11/21 06:20:15;;;;;;;3.00;2.28;;;;;;;;;;6092438;23;20023;-81
2022/11/21 06:22:42;;;;;;;2.45;2.00;;;;;;;;;;6067733;23;20345;-81
2022/11/21 06:25:09;;;;;;;3.45;2.42;;;;;;;;;;6093557;23;20037;-82
2022/11/21 06:27:43;;;;;;;2.65;2.30;;;;;;;;;;6091822;23;20022;-80
2022/11/21 06:30:10;;;;;;;2.70;2.15;;;;;;;;;;6067856;23;20030;-82
2022/11/21 06:32:48;;;;;;;3.25;2.20;;;;;;;;;;6069704;23;20034;-84
2022/11/21 06:35:15;;;;;;;3.17;2.10;;;;;;;;;;6091871;23;20026;-84
2022/11/21 06:37:42;;;;;;;4.95;2.20;;;;;;;;;;6092265;23;20136;-81
2022/11/21 06:40:20;;;;;;;3.28;2.03;;;;;;;;;;6092899;23;20029;-81
2022/11/21 06:42:47;;;;;;;4.72;2.00;;;;;;;;;;6091709;23;20048;-85
2022/11/21 06:45:14;;;;;;;3.10;2.15;;;;;;;;;;6093401;23;20049;-80
2022/11/21 06:47:48;;;;;;;2.47;1.88;;;;;;;;;;6068948;23;20044;-81
2022/11/21 06:50:15;;;;;;;2.83;2.22;;;;;;;;;;6092434;23;20041;-81
2022/11/21 06:52:49;;;;;;;2.75;1.98;;;;;;;;;;6092677;23;20097;-82
2022/11/21 06:55:16;;;;;;;2.55;2.10;;;;;;;;;;6067690;23;20028;-81
2022/11/21 06:57:44;;;;;;;2.22;2.03;;;;;;;;;;6091675;23;20022;-80
2022/11/21 07:00:17;;;;;;;4.18;1.83;;;;;;;;;;6091976;23;20069;-82
2022/11/21 07:02:51;;;;;;;2.80;1.88;;;;;;;;;;6066222;23;20491;-81
2022/11/21 07:05:30;;;;;;;2.08;1.80;;;;;;;;;;6091896;23;20081;-81
2022/11/21 07:07:58;;;;;;;4.20;1.92;;;;;;;;;;6092386;23;20102;-81
2022/11/21 07:10:39;;;;;;;2.53;1.85;;;;;;;;;;6092494;23;20074;-81
2022/11/21 07:13:21;;;;;;;2.55;1.90;;;;;;;;;;6092545;23;20033;-81
2022/11/21 07:15:55;;;;;;;3.25;2.00;;;;;;;;;;6092616;23;20097;-81
2022/11/21 07:18:29;;;;;;;2.28;1.83;;;;;;;;;;6091605;23;20026;-81
2022/11/21 07:20:59;;;;;;;2.40;1.83;;;;;;;;;;6067224;23;20105;-80
2022/11/21 07:23:34;;;;;;;1.73;1.52;;;;;;;;;;6092209;23;20054;-81
2022/11/21 07:26:02;;;;;;;2.60;1.90;;;;;;;;;;6091908;23;20040;-81
2022/11/21 07:28:29;;;;;;;2.47;1.70;;;;;;;;;;6093088;23;20026;-81
2022/11/21 07:31:03;;;;;;;2.45;1.70;;;;;;;;;;6093568;23;20049;-80
2022/11/21 07:33:39;;;;;;;1.75;1.50;;;;;;;;;;6091605;23;20101;-80
2022/11/21 07:36:13;;;;;;;1.83;1.63;;;;;;;;;;6069432;23;20030;-81
2022/11/21 07:38:40;;;;;;;2.40;1.88;;;;;;;;;;6092527;23;20478;-81
2022/11/21 07:41:14;;;;;;;2.03;1.65;;;;;;;;;;6091393;23;20097;-80
2022/11/21 07:43:41;;;;;;;2.30;1.60;;;;;;;;;;6092246;23;20026;-79
2022/11/21 07:46:08;;;;;;;2.83;1.73;;;;;;;;;;6066759;23;20029;-82
2022/11/21 07:48:42;;;;;;;3.10;1.73;;;;;;;;;;6092115;23;20112;-80
2022/11/21 07:51:09;;;;;;;2.10;1.70;;;;;;;;;;6092092;23;20129;-82
2022/11/21 07:53:43;;;;;;;2.10;1.45;;;;;;;;;;6091671;23;20113;-81
2022/11/21 07:56:10;;;;;;;2.45;1.55;;;;;;;;;;6066243;23;20034;-83
2022/11/21 07:58:37;;;;;;;2.60;1.80;;;;;;;;;;6092486;23;20409;-81
2022/11/21 08:01:11;;;;;;;1.95;1.67;;;;;;;;;;6092576;23;20467;-82
2022/11/21 08:03:45;;;;;;;2.08;1.70;;;;;;;;;;6092073;23;20026;-80
2022/11/21 08:06:18;;;;;;;2.10;1.60;;;;;;;;;;6090905;23;20037;-81
2022/11/21 08:08:47;;;;;;;2.67;1.77;;;;;;;;;;6091854;23;20129;-80
2022/11/21 08:11:14;;;;;;;2.17;1.90;;;;;;;;;;6091511;23;20109;-81
2022/11/21 08:13:47;;;;;;;2.70;1.80;;;;;;;;;;6091718;23;20022;-80
2022/11/21 08:16:14;;;;;;;2.13;1.70;;;;;;;;;;6092557;23;20023;-80
2022/11/21 08:18:41;;;;;;;2.38;1.70;;;;;;;;;;6091426;23;20130;-80
2022/11/21 08:21:15;;;;;;;2.35;1.70;;;;;;;;;;6091214;23;20019;-80
2022/11/21 08:23:46;;;;;;;2.42;1.63;;;;;;;;;;6091727;23;20031;-80
2022/11/21 08:26:20;;;;;;;1.90;1.73;;;;;;;;;;6091459;23;20105;-80
2022/11/21 08:28:47;;;;;;;2.72;1.92;;;;;;;;;;6091862;23;20097;-80
2022/11/21 08:31:14;;;;;;;1.88;1.67;;;;;;;;;;6090682;23;20428;-81
2022/11/21 08:33:48;;;;;;;2.78;1.60;;;;;;;;;;6089659;23;20105;-81
2022/11/21 08:36:15;;;;;;;2.00;1.80;;;;;;;;;;6091471;23;20347;-80
2022/11/21 08:38:42;;;;;;;1.95;1.75;;;;;;;;;;6091528;23;20069;-80
2022/11/21 08:44:07;;;;;;;1.45;1.33;;;;;;;;;;6026920;23;20681;-81
2022/11/21 08:46:41;;;;;;;2.80;1.75;;;;;;;;;;6092545;23;20101;-80
2022/11/21 08:49:08;;;;;;;2.17;1.95;;;;;;;;;;6094565;23;20026;-81
2022/11/21 08:51:35;;;;;;;2.28;1.95;;;;;;;;;;6093680;23;20027;-80
2022/11/21 08:54:09;;;;;;;2.05;1.83;;;;;;;;;;6093022;23;20546;-83
2022/11/21 08:56:36;;;;;;;2.05;1.85;;;;;;;;;;6094035;23;20109;-80
2022/11/21 08:59:10;;;;;;;2.05;1.75;;;;;;;;;;6094226;23;20050;-80
2022/11/21 09:01:44;;;;;;;3.35;1.90;;;;;;;;;;6092198;23;20037;-80
2022/11/21 09:04:25;;;;;;;2.28;1.92;;;;;;;;;;6065710;23;20070;-81
2022/11/21 09:06:52;;;;;;;1.70;1.40;;;;;;;;;;6064930;23;20045;-80
2022/11/21 09:09:26;;;;;;;2.00;1.52;;;;;;;;;;6064093;23;20634;-80
2022/11/21 09:12:01;;;;;;;3.20;1.80;;;;;;;;;;6063725;23;20416;-81
2022/11/21 09:20:14;;;;;;;2.08;1.70;;;;;;;;;;6064386;23;20110;-79
2022/11/21 09:22:41;;;;;;;1.80;1.38;;;;;;;;;;6065127;23;20027;-83
2022/11/21 09:25:08;;;;;;;2.20;1.30;;;;;;;;;;6065163;23;20098;-80
2022/11/21 09:27:42;;;;;;;2.45;1.70;;;;;;;;;;6064939;23;20029;-81
2022/11/21 09:30:10;;;;;;;2.45;1.73;;;;;;;;;;6064106;23;20023;-80
2022/11/21 09:32:37;;;;;;;1.90;1.70;;;;;;;;;;6063730;23;20037;-82
2022/11/21 09:35:11;;;;;;;2.13;1.70;;;;;;;;;;6064841;23;20029;-80
2022/11/21 09:37:39;;;;;;;1.80;1.65;;;;;;;;;;6064842;23;20065;-80
2022/11/21 09:40:15;;;;;;;1.73;1.40;;;;;;;;;;6064484;23;20110;-80
2022/11/21 09:43:01;;;;;;;1.50;1.40;;;;;;;;;;6065004;23;20025;-80
2022/11/21 09:45:41;;;;;;;1.67;1.58;;;;;;;;;;6064356;23;20019;-81
2022/11/21 09:48:12;;;;;;;2.15;1.60;;;;;;;;;;6063697;23;20114;-80
2022/11/21 09:50:52;;;;;;;2.00;1.70;;;;;;;;;;6064050;23;20031;-80
2022/11/21 09:53:26;;;;;;;2.92;2.15;;;;;;;;;;6062910;23;20031;-81
2022/11/21 09:56:22;;;;;;;1.90;1.70;;;;;;;;;;6064071;23;20528;-80
2022/11/21 09:59:10;;;;;;;2.42;1.85;;;;;;;;;;6063767;23;20470;-80
2022/11/21 10:01:51;;;;;;;2.42;1.95;;;;;;;;;;6063882;23;20031;-81
2022/11/21 10:04:26;;;;;;;2.42;2.08;;;;;;;;;;6063703;23;20465;-80
2022/11/21 10:07:03;;;;;;;2.65;1.75;;;;;;;;;;6063871;23;20110;-81
2022/11/21 10:09:33;;;;;;;3.65;2.10;;;;;;;;;;6062978;23;20082;-80
2022/11/21 10:15:05;;;;;;;2.42;1.98;;;;;;;;;;6063939;23;20119;-81
2022/11/21 10:17:39;;;;;;;1.65;1.55;;;;;;;;;;6062826;23;20023;-81
2022/11/21 10:20:15;;;;;;;1.98;1.70;;;;;;;;;;6063774;23;20029;-82
2022/11/21 10:22:50;;;;;;;2.67;1.90;;;;;;;;;;6064169;23;20022;-81
2022/11/21 10:25:25;;;;;;;3.38;2.13;;;;;;;;;;6063335;23;20023;-80
2022/11/21 10:28:02;;;;;;;2.33;1.95;;;;;;;;;;6064183;23;20023;-82
2022/11/21 10:30:39;;;;;;;2.95;2.15;;;;;;;;;;6063982;23;20038;-83
2022/11/21 10:33:11;;;;;;;2.00;1.73;;;;;;;;;;6061765;23;20062;-82
2022/11/21 10:35:50;;;;;;;1.98;1.70;;;;;;;;;;6063942;23;20111;-82
2022/11/21 10:38:21;;;;;;;4.68;1.80;;;;;;;;;;6061838;23;20138;-82
2022/11/21 10:40:54;;;;;;;2.65;2.00;;;;;;;;;;6063062;23;20069;-82
2022/11/21 10:46:17;;;;;;;2.22;1.90;;;;;;;;;;6063260;23;20389;-81
2022/11/21 10:48:58;;;;;;;2.08;1.88;;;;;;;;;;6064078;23;20054;-81
2022/11/21 10:51:28;;;;;;;2.55;2.03;;;;;;;;;;6064509;23;20033;-81
2022/11/21 10:56:49;;;;;;;2.75;1.83;;;;;;;;;;6064970;23;20019;-80
2022/11/21 10:59:25;;;;;;;3.67;1.90;;;;;;;;;;6063799;23;20055;-81
2022/11/21 11:02:00;;;;;;;2.40;2.00;;;;;;;;;;6064611;23;20030;-81
2022/11/21 11:04:41;;;;;;;4.20;1.83;;;;;;;;;;6092033;23;20105;-83
2022/11/21 11:07:21;;;;;;;2.35;1.90;;;;;;;;;;6091941;23;20032;-81
2022/11/21 11:10:21;;;;;;;1.98;1.63;;;;;;;;;;6092908;23;20022;-82
2022/11/21 11:16:09;;;;;;;2.17;1.90;;;;;;;;;;6091122;23;20026;-83
2022/11/21 11:18:41;;;;;;;2.65;1.90;;;;;;;;;;6092407;23;20022;-82
2022/11/21 11:21:19;;;;;;;2.03;1.75;;;;;;;;;;6092973;23;20038;-83
2022/11/21 11:23:47;;;;;;;2.08;1.88;;;;;;;;;;6066480;23;20435;-83
2022/11/21 11:26:26;;;;;;;2.75;2.05;;;;;;;;;;6068045;23;20026;-84
2022/11/21 11:29:04;;;;;;;2.72;2.00;;;;;;;;;;6066941;23;20475;-84
2022/11/21 11:31:41;;;;;;;2.53;1.90;;;;;;;;;;6092097;23;20118;-84
2022/11/21 11:34:12;;;;;;;2.50;1.80;;;;;;;;;;6092242;23;20101;-84
2022/11/21 11:36:46;;;;;;;2.55;1.80;;;;;;;;;;6067356;23;20485;-84
2022/11/21 11:39:18;;;;;;;2.03;1.65;;;;;;;;;;6092726;23;20018;-83
2022/11/21 11:47:53;;;;;;;2.20;1.73;;;;;;;;;;6092284;23;20490;-83
2022/11/21 11:50:40;;;;;;;3.40;2.00;;;;;;;;;;6092241;23;20014;-83
2022/11/21 11:53:16;;;;;;;2.63;1.95;;;;;;;;;;6066229;23;20064;-83
2022/11/21 11:55:55;;;;;;;2.55;2.03;;;;;;;;;;6068129;23;20409;-83
2022/11/21 11:58:38;;;;;;;2.70;2.10;;;;;;;;;;6091115;23;20060;-83
2022/11/21 12:01:15;;;;;;;3.05;2.10;;;;;;;;;;6090688;23;20129;-83
2022/11/21 12:03:54;;;;;;;2.13;1.80;;;;;;;;;;6090912;23;20018;-82
2022/11/21 12:06:31;;;;;;;2.35;2.00;;;;;;;;;;6091652;23;20415;-82
2022/11/21 12:09:18;;;;;;;1.95;1.75;;;;;;;;;;6091419;23;20632;-81
2022/11/21 12:12:05;;;;;;;2.35;1.92;;;;;;;;;;6091709;23;20027;-83
2022/11/21 12:17:52;;;;;;;5.50;1.77;;;;;;;;;;6090559;23;20399;-83
2022/11/21 12:20:33;;;;;;;3.00;2.10;;;;;;;;;;6091907;23;20030;-83
2022/11/21 12:23:09;;;;;;;2.20;1.70;;;;;;;;;;6090190;23;20092;-82
2022/11/21 12:25:40;;;;;;;2.78;2.22;;;;;;;;;;6091802;23;20083;-84
2022/11/21 12:28:18;;;;;;;2.67;2.05;;;;;;;;;;6067838;23;20037;-84
2022/11/21 12:30:52;;;;;;;2.58;2.10;;;;;;;;;;6090849;23;20113;-84
2022/11/21 12:33:26;;;;;;;2.17;1.67;;;;;;;;;;6091374;23;20024;-84
2022/11/21 12:35:53;;;;;;;2.70;2.10;;;;;;;;;;6091466;23;20049;-83
2022/11/21 12:38:32;;;;;;;2.55;1.85;;;;;;;;;;6065223;23;20023;-82
2022/11/21 12:44:10;;;;;;;2.22;1.98;;;;;;;;;;6090929;23;20021;-84
2022/11/21 12:46:55;;;;;;;2.33;1.98;;;;;;;;;;6091142;23;20444;-83
2022/11/21 12:55:38;;;;;;;2.20;2.00;;;;;;;;;;6091223;23;20023;-84
2022/11/21 12:58:26;;;;;;;2.53;2.10;;;;;;;;;;6091168;23;20041;-83
2022/11/21 13:01:02;;;;;;;2.58;1.90;;;;;;;;;;6092175;23;20054;-83
2022/11/21 13:03:47;;;;;;;2.90;2.30;;;;;;;;;;6091277;23;20027;-82
2022/11/21 13:06:25;;;;;;;3.63;2.58;;;;;;;;;;6064562;23;20405;-82
2022/11/21 13:09:01;;;;;;;2.97;2.38;;;;;;;;;;6091158;23;20060;-84
2022/11/21 13:11:59;;;;;;;2.58;2.35;;;;;;;;;;6090542;23;20067;-84
2022/11/21 13:14:51;;;;;;;3.25;2.50;;;;;;;;;;6089860;23;20058;-83
2022/11/21 13:17:30;;;;;;;3.58;2.53;;;;;;;;;;6065588;23;20018;-82
2022/11/21 13:20:23;;;;;;;3.10;2.35;;;;;;;;;;6091649;23;20026;-83
2022/11/21 13:22:51;;;;;;;4.05;3.00;;;;;;;;;;6090408;23;20026;-83
2022/11/21 13:25:31;;;;;;;4.20;2.75;;;;;;;;;;6090204;23;20113;-84
2022/11/21 13:28:11;;;;;;;4.47;3.10;;;;;;;;;;6090912;23;20090;-84
2022/11/21 13:30:52;;;;;;;4.75;3.00;;;;;;;;;;6068781;23;20026;-83
2022/11/21 13:33:36;;;;;;;4.13;2.90;;;;;;;;;;6069315;23;20026;-83
2022/11/21 13:36:13;;;;;;;7.03;3.33;;;;;;;;;;6066908;23;20113;-82
2022/11/21 13:38:50;;;;;;;4.05;2.85;;;;;;;;;;6092328;23;20022;-84
2022/11/21 13:44:31;;;;;;;4.57;3.08;;;;;;;;;;6093103;23;20018;-82
2022/11/21 13:47:08;;;;;;;3.85;2.95;;;;;;;;;;6092860;23;20071;-83
2022/11/21 13:49:47;;;;;;;4.55;3.03;;;;;;;;;;6093663;23;20031;-85
2022/11/21 13:52:28;;;;;;;5.60;3.70;;;;;;;;;;6093540;23;20062;-83
2022/11/21 13:55:02;;;;;;;6.82;3.47;;;;;;;;;;6093567;23;20034;-84
2022/11/21 13:57:41;;;;;;;4.93;3.05;;;;;;;;;;6093517;23;20032;-83
2022/11/21 14:00:15;;;;;;;4.95;3.38;;;;;;;;;;6067140;23;20018;-83
2022/11/21 14:03:19;;;;;;;6.20;3.50;;;;;;;;;;6069429;23;20369;-82
2022/11/21 14:06:12;;;;;;;5.30;3.67;;;;;;;;;;6092906;23;20027;-83
2022/11/21 14:09:05;;;;;;;5.20;3.58;;;;;;;;;;6091697;23;20033;-84
2022/11/21 14:11:36;;;;;;;5.22;3.30;;;;;;;;;;6066876;23;20023;-82
2022/11/21 14:14:10;;;;;;;4.65;3.53;;;;;;;;;;6091771;23;20028;-82
2022/11/21 14:16:40;;;;;;;;;;;;;;;;;;6092645;23;20705;-83
2022/11/21 14:19:12;;;;;;;5.63;3.55;;;;;;;;;;6066748;23;20004;-83
2022/11/21 14:21:46;;;;;;;5.55;4.13;;;;;;;;;;6066614;23;20097;-84
2022/11/21 14:24:19;;;;;;;5.55;3.88;;;;;;;;;;6092220;23;20527;-84
2022/11/21 14:26:53;;;;;;;;;;;;;;;;;;6067691;23;20531;-83
2022/11/21 14:29:25;;;;;;;6.85;3.97;;;;;;;;;;6092615;23;19921;-82
2022/11/21 14:31:59;;;;;;;5.95;4.10;;;;;;;;;;6092281;23;20485;-83
2022/11/21 14:34:27;;;;;;;8.30;4.68;;;;;;;;;;6066219;23;20093;-83
2022/11/21 14:37:04;;;;;;;7.35;4.60;;;;;;;;;;6091189;23;20037;-83
2022/11/21 14:39:32;;;;;;;6.45;4.38;;;;;;;;;;6066412;23;20126;-83
2022/11/21 14:42:19;;;;;;;7.15;4.38;;;;;;;;;;6091404;23;20034;-83
2022/11/21 14:44:46;;;;;;;8.05;5.10;;;;;;;;;;6092071;23;20359;-84
2022/11/21 14:47:21;;;;;;;10.27;5.35;;;;;;;;;;6091694;23;20045;-83
2022/11/21 14:49:53;;;;;;;8.50;4.82;;;;;;;;;;6092129;23;20122;-82
2022/11/21 14:52:33;;;;;;;7.72;4.85;;;;;;;;;;6068951;23;20030;-84
2022/11/21 14:55:00;;;;;;;;;;;;;;;;;;6092147;23;20021;-84
2022/11/21 14:57:55;;;;;;;7.18;4.50;;;;;;;;;;6071598;23;19937;-82
2022/11/21 15:00:24;;;;;;;9.63;5.22;;;;;;;;;;6091490;23;20023;-82
2022/11/21 15:03:32;;;;;;;8.10;5.18;;;;;;;;;;6091290;23;20025;-83
2022/11/21 15:06:10;;;;;;;9.90;5.45;;;;;;;;;;6091305;23;20332;-82
2022/11/21 15:08:44;;;;;;;;;;;;;;;;;;6092191;23;20057;-82
2022/11/21 15:11:42;;;;;;;7.30;4.78;;;;;;;;;;6092047;23;19932;-83
2022/11/21 15:14:18;;;;;;;10.37;5.47;;;;;;;;;;6091744;23;20054;-83
2022/11/21 15:16:52;;;;;;;8.48;5.28;;;;;;;;;;6090979;23;20102;-84
2022/11/21 15:19:24;;;;;;;8.10;5.18;;;;;;;;;;6090505;23;20026;-82
2022/11/21 15:22:00;;;;;;;8.38;5.47;;;;;;;;;;6092046;23;20035;-82
2022/11/21 15:24:36;;;;;;;8.10;4.80;;;;;;;;;;6067083;23;20560;-83
2022/11/21 15:27:42;;;;;;;9.68;5.97;;;;;;;;;;6092043;23;20036;-82
2022/11/21 15:30:09;;;;;;;;;;;;;;;;;;6028604;23;20363;-83
2022/11/21 15:33:02;;;;;;;7.85;4.97;;;;;;;;;;6092186;23;19923;-82
2022/11/21 15:35:52;;;;;;;7.40;4.95;;;;;;;;;;6091165;23;20125;-82
2022/11/21 15:38:22;;;;;;;9.00;5.78;;;;;;;;;;6091836;23;20049;-83
2022/11/21 15:41:08;;;;;;;10.55;5.78;;;;;;;;;;6090668;23;20101;-83
2022/11/21 15:43:52;;;;;;;7.55;5.38;;;;;;;;;;6090070;23;20117;-83
2022/11/21 15:46:27;;;;;;;13.75;6.07;;;;;;;;;;6091148;23;20109;-83
2022/11/21 15:48:55;;;;;;;11.25;5.95;;;;;;;;;;6090597;23;20337;-83
2022/11/21 15:51:49;;;;;;;9.85;5.85;;;;;;;;;;6090982;23;20490;-83
2022/11/21 15:54:37;;;;;;;9.38;5.43;;;;;;;;;;6071038;23;20018;-82
2022/11/21 15:57:13;;;;;;;12.77;6.15;;;;;;;;;;6091075;23;20036;-82
2022/11/21 15:59:43;;;;;;;9.63;5.75;;;;;;;;;;6091087;23;20053;-82
2022/11/21 16:02:14;;;;;;;10.00;5.90;;;;;;;;;;6091270;23;20026;-84
2022/11/21 16:04:55;;;;;;;11.60;5.43;;;;;;;;;;6066961;23;20491;-82
2022/11/21 16:07:22;;;;;;;10.55;5.22;;;;;;;;;;6090825;23;20018;-83
2022/11/21 16:09:56;;;;;;;10.27;5.40;;;;;;;;;;6090567;23;20352;-83
2022/11/21 16:12:24;;;;;;;10.70;5.45;;;;;;;;;;6065228;23;20034;-82